sensor_id;sensor_type;location;lat;lon;timestamp;P1;durP1;ratioP1;P2;durP2;ratioP2
2656;SDS011;1338;48.176;11.792;2023-02-27T00:00:52;4.57;;;4.17;;
2656;SDS011;1338;48.176;11.792;2023-02-27T00:03:20;4.20;;;3.80;;
2656;SDS011;1338;48.176;11.792;2023-02-27T00:05:48;4.20;;;3.80;;
2656;SDS011;1338;48.176;11.792;2023-02-27T00:08:16;4.90;;;4.50;;
2656;SDS011;1338;48.176;11.792;2023-02-27T00:10:45;4.73;;;4.33;;
2656;SDS011;1338;48.176;11.792;2023-02-27T00:13:13;4.73;;;4.33;;
2656;SDS011;1338;48.176;11.792;2023-02-27T00:15:43;4.23;;;3.83;;
2656;SDS011;1338;48.176;11.792;2023-02-27T00:18:12;4.87;;;4.37;;
2656;SDS011;1338;48.176;11.792;2023-02-27T00:20:40;4.50;;;4.10;;
2656;SDS011;1338;48.176;11.792;2023-02-27T00:23:08;4.70;;;4.30;;
2656;SDS011;1338;48.176;11.792;2023-02-27T00:25:36;3.93;;;3.60;;
2656;SDS011;1338;48.176;11.792;2023-02-27T00:28:04;4.17;;;3.87;;
2656;SDS011;1338;48.176;11.792;2023-02-27T00:30:33;4.20;;;3.80;;
2656;SDS011;1338;48.176;11.792;2023-02-27T00:33:02;4.13;;;3.70;;
2656;SDS011;1338;48.176;11.792;2023-02-27T00:35:31;5.13;;;4.63;;
2656;SDS011;1338;48.176;11.792;2023-02-27T00:37:59;4.50;;;4.10;;
2656;SDS011;1338;48.176;11.792;2023-02-27T00:40:28;3.90;;;3.60;;
2656;SDS011;1338;48.176;11.792;2023-02-27T00:42:56;4.13;;;3.73;;
2656;SDS011;1338;48.176;11.792;2023-02-27T00:45:24;5.23;;;4.23;;
2656;SDS011;1338;48.176;11.792;2023-02-27T00:47:52;5.50;;;4.70;;
2656;SDS011;1338;48.176;11.792;2023-02-27T00:50:21;3.63;;;3.33;;
2656;SDS011;1338;48.176;11.792;2023-02-27T00:52:49;4.10;;;3.70;;
2656;SDS011;1338;48.176;11.792;2023-02-27T00:55:17;4.43;;;4.00;;
2656;SDS011;1338;48.176;11.792;2023-02-27T00:57:46;4.23;;;3.73;;
2656;SDS011;1338;48.176;11.792;2023-02-27T01:00:14;4.30;;;3.90;;
2656;SDS011;1338;48.176;11.792;2023-02-27T01:02:43;3.90;;;3.60;;
2656;SDS011;1338;48.176;11.792;2023-02-27T01:05:11;4.17;;;3.77;;
2656;SDS011;1338;48.176;11.792;2023-02-27T01:07:41;4.70;;;4.30;;
2656;SDS011;1338;48.176;11.792;2023-02-27T01:10:10;4.13;;;3.70;;
2656;SDS011;1338;48.176;11.792;2023-02-27T01:12:39;4.53;;;4.13;;
2656;SDS011;1338;48.176;11.792;2023-02-27T01:15:08;4.20;;;3.90;;
2656;SDS011;1338;48.176;11.792;2023-02-27T01:17:37;4.30;;;3.90;;
2656;SDS011;1338;48.176;11.792;2023-02-27T01:20:06;5.47;;;4.40;;
2656;SDS011;1338;48.176;11.792;2023-02-27T01:22:35;4.37;;;4.03;;
2656;SDS011;1338;48.176;11.792;2023-02-27T01:25:05;3.70;;;3.40;;
2656;SDS011;1338;48.176;11.792;2023-02-27T01:27:37;4.27;;;3.97;;
2656;SDS011;1338;48.176;11.792;2023-02-27T01:30:06;3.90;;;3.60;;
2656;SDS011;1338;48.176;11.792;2023-02-27T01:32:36;3.60;;;3.30;;
2656;SDS011;1338;48.176;11.792;2023-02-27T01:35:05;4.80;;;4.40;;
2656;SDS011;1338;48.176;11.792;2023-02-27T01:37:34;4.73;;;4.10;;
2656;SDS011;1338;48.176;11.792;2023-02-27T01:40:03;4.00;;;3.70;;
2656;SDS011;1338;48.176;11.792;2023-02-27T01:42:34;4.63;;;4.23;;
2656;SDS011;1338;48.176;11.792;2023-02-27T01:47:55;4.27;;;3.73;;
2656;SDS011;1338;48.176;11.792;2023-02-27T01:50:27;5.10;;;4.37;;
2656;SDS011;1338;48.176;11.792;2023-02-27T01:52:56;4.83;;;4.43;;
2656;SDS011;1338;48.176;11.792;2023-02-27T01:55:29;5.03;;;4.63;;
2656;SDS011;1338;48.176;11.792;2023-02-27T01:57:59;4.60;;;4.20;;
2656;SDS011;1338;48.176;11.792;2023-02-27T02:00:28;4.47;;;4.07;;
2656;SDS011;1338;48.176;11.792;2023-02-27T02:02:57;4.50;;;4.00;;
2656;SDS011;1338;48.176;11.792;2023-02-27T02:05:30;4.03;;;3.50;;
2656;SDS011;1338;48.176;11.792;2023-02-27T02:07:59;5.37;;;4.87;;
2656;SDS011;1338;48.176;11.792;2023-02-27T02:10:29;4.67;;;4.27;;
2656;SDS011;1338;48.176;11.792;2023-02-27T02:12:57;6.00;;;4.57;;
2656;SDS011;1338;48.176;11.792;2023-02-27T02:15:28;5.07;;;4.67;;
2656;SDS011;1338;48.176;11.792;2023-02-27T02:18:04;4.53;;;4.13;;
2656;SDS011;1338;48.176;11.792;2023-02-27T02:21:04;4.67;;;4.30;;
2656;SDS011;1338;48.176;11.792;2023-02-27T02:24:12;4.70;;;4.30;;
2656;SDS011;1338;48.176;11.792;2023-02-27T02:27:08;5.07;;;4.67;;
2656;SDS011;1338;48.176;11.792;2023-02-27T02:29:58;6.43;;;5.93;;
2656;SDS011;1338;48.176;11.792;2023-02-27T02:36:12;4.27;;;3.90;;
2656;SDS011;1338;48.176;11.792;2023-02-27T02:39:14;4.70;;;3.50;;
2656;SDS011;1338;48.176;11.792;2023-02-27T02:41:56;4.83;;;4.33;;
2656;SDS011;1338;48.176;11.792;2023-02-27T02:44:33;5.70;;;4.60;;
2656;SDS011;1338;48.176;11.792;2023-02-27T02:47:12;4.57;;;4.17;;
2656;SDS011;1338;48.176;11.792;2023-02-27T02:49:49;3.80;;;3.50;;
2656;SDS011;1338;48.176;11.792;2023-02-27T02:52:25;4.50;;;4.00;;
2656;SDS011;1338;48.176;11.792;2023-02-27T02:55:00;5.43;;;4.93;;
2656;SDS011;1338;48.176;11.792;2023-02-27T02:57:35;4.40;;;4.10;;
2656;SDS011;1338;48.176;11.792;2023-02-27T03:00:08;4.97;;;4.37;;
2656;SDS011;1338;48.176;11.792;2023-02-27T03:02:41;4.63;;;4.23;;
2656;SDS011;1338;48.176;11.792;2023-02-27T03:05:16;4.77;;;4.37;;
2656;SDS011;1338;48.176;11.792;2023-02-27T03:07:49;4.00;;;3.70;;
2656;SDS011;1338;48.176;11.792;2023-02-27T03:10:25;5.10;;;4.20;;
2656;SDS011;1338;48.176;11.792;2023-02-27T03:12:57;4.83;;;4.30;;
2656;SDS011;1338;48.176;11.792;2023-02-27T03:15:29;4.80;;;4.37;;
2656;SDS011;1338;48.176;11.792;2023-02-27T03:18:03;4.03;;;3.67;;
2656;SDS011;1338;48.176;11.792;2023-02-27T03:20:44;3.47;;;3.27;;
2656;SDS011;1338;48.176;11.792;2023-02-27T03:23:15;4.50;;;4.10;;
2656;SDS011;1338;48.176;11.792;2023-02-27T03:25:52;5.43;;;4.90;;
2656;SDS011;1338;48.176;11.792;2023-02-27T03:28:26;4.50;;;4.10;;
2656;SDS011;1338;48.176;11.792;2023-02-27T03:30:59;4.67;;;4.20;;
2656;SDS011;1338;48.176;11.792;2023-02-27T03:33:37;4.47;;;3.67;;
2656;SDS011;1338;48.176;11.792;2023-02-27T03:36:09;4.63;;;4.23;;
2656;SDS011;1338;48.176;11.792;2023-02-27T03:38:46;5.03;;;4.20;;
2656;SDS011;1338;48.176;11.792;2023-02-27T03:41:21;4.57;;;4.20;;
2656;SDS011;1338;48.176;11.792;2023-02-27T03:44:12;4.50;;;4.10;;
2656;SDS011;1338;48.176;11.792;2023-02-27T03:46:46;5.90;;;4.40;;
2656;SDS011;1338;48.176;11.792;2023-02-27T03:49:15;5.43;;;4.60;;
2656;SDS011;1338;48.176;11.792;2023-02-27T03:51:43;4.80;;;4.30;;
2656;SDS011;1338;48.176;11.792;2023-02-27T03:54:12;6.17;;;4.53;;
2656;SDS011;1338;48.176;11.792;2023-02-27T03:56:50;5.00;;;4.50;;
2656;SDS011;1338;48.176;11.792;2023-02-27T03:59:22;4.60;;;4.17;;
2656;SDS011;1338;48.176;11.792;2023-02-27T04:01:53;7.10;;;4.30;;
2656;SDS011;1338;48.176;11.792;2023-02-27T04:04:25;5.07;;;4.57;;
2656;SDS011;1338;48.176;11.792;2023-02-27T04:07:21;4.40;;;4.00;;
2656;SDS011;1338;48.176;11.792;2023-02-27T04:12:55;5.27;;;4.80;;
2656;SDS011;1338;48.176;11.792;2023-02-27T04:15:52;5.53;;;4.50;;
2656;SDS011;1338;48.176;11.792;2023-02-27T04:18:38;4.17;;;3.80;;
2656;SDS011;1338;48.176;11.792;2023-02-27T04:21:20;6.17;;;4.87;;
2656;SDS011;1338;48.176;11.792;2023-02-27T04:23:56;6.93;;;5.00;;
2656;SDS011;1338;48.176;11.792;2023-02-27T04:26:31;5.73;;;5.23;;
2656;SDS011;1338;48.176;11.792;2023-02-27T04:29:07;5.23;;;4.73;;
2656;SDS011;1338;48.176;11.792;2023-02-27T04:31:46;4.87;;;4.47;;
2656;SDS011;1338;48.176;11.792;2023-02-27T04:34:22;5.27;;;4.77;;
2656;SDS011;1338;48.176;11.792;2023-02-27T04:36:56;3.80;;;3.50;;
2656;SDS011;1338;48.176;11.792;2023-02-27T04:39:29;5.23;;;4.40;;
2656;SDS011;1338;48.176;11.792;2023-02-27T04:42:04;4.90;;;4.40;;
2656;SDS011;1338;48.176;11.792;2023-02-27T04:44:36;5.23;;;4.03;;
2656;SDS011;1338;48.176;11.792;2023-02-27T04:47:07;5.20;;;4.63;;
2656;SDS011;1338;48.176;11.792;2023-02-27T04:49:38;5.17;;;4.50;;
2656;SDS011;1338;48.176;11.792;2023-02-27T04:52:10;4.87;;;4.37;;
2656;SDS011;1338;48.176;11.792;2023-02-27T04:54:42;5.47;;;4.57;;
2656;SDS011;1338;48.176;11.792;2023-02-27T04:57:17;5.07;;;4.40;;
2656;SDS011;1338;48.176;11.792;2023-02-27T04:59:51;4.90;;;4.40;;
2656;SDS011;1338;48.176;11.792;2023-02-27T05:02:22;4.73;;;4.23;;
2656;SDS011;1338;48.176;11.792;2023-02-27T05:04:54;6.43;;;4.73;;
2656;SDS011;1338;48.176;11.792;2023-02-27T05:07:25;4.40;;;4.00;;
2656;SDS011;1338;48.176;11.792;2023-02-27T05:09:57;4.60;;;4.20;;
2656;SDS011;1338;48.176;11.792;2023-02-27T05:12:30;4.90;;;4.50;;
2656;SDS011;1338;48.176;11.792;2023-02-27T05:15:04;4.57;;;4.27;;
2656;SDS011;1338;48.176;11.792;2023-02-27T05:17:38;4.90;;;4.40;;
2656;SDS011;1338;48.176;11.792;2023-02-27T05:20:11;5.90;;;5.20;;
2656;SDS011;1338;48.176;11.792;2023-02-27T05:22:44;10.37;;;7.77;;
2656;SDS011;1338;48.176;11.792;2023-02-27T05:25:14;6.07;;;5.57;;
2656;SDS011;1338;48.176;11.792;2023-02-27T05:27:50;6.07;;;4.77;;
2656;SDS011;1338;48.176;11.792;2023-02-27T05:30:23;5.90;;;5.30;;
2656;SDS011;1338;48.176;11.792;2023-02-27T05:32:56;6.13;;;4.70;;
2656;SDS011;1338;48.176;11.792;2023-02-27T05:35:28;5.47;;;4.50;;
2656;SDS011;1338;48.176;11.792;2023-02-27T05:38:02;4.87;;;4.47;;
2656;SDS011;1338;48.176;11.792;2023-02-27T05:40:33;6.17;;;4.60;;
2656;SDS011;1338;48.176;11.792;2023-02-27T05:43:04;4.93;;;4.50;;
2656;SDS011;1338;48.176;11.792;2023-02-27T05:45:38;5.20;;;4.53;;
2656;SDS011;1338;48.176;11.792;2023-02-27T05:48:12;5.07;;;3.83;;
2656;SDS011;1338;48.176;11.792;2023-02-27T05:50:45;4.97;;;4.47;;
2656;SDS011;1338;48.176;11.792;2023-02-27T05:53:16;5.20;;;4.70;;
2656;SDS011;1338;48.176;11.792;2023-02-27T05:55:47;6.10;;;4.77;;
2656;SDS011;1338;48.176;11.792;2023-02-27T05:58:18;6.50;;;4.87;;
2656;SDS011;1338;48.176;11.792;2023-02-27T06:00:52;5.13;;;4.63;;
2656;SDS011;1338;48.176;11.792;2023-02-27T06:03:24;5.10;;;4.60;;
2656;SDS011;1338;48.176;11.792;2023-02-27T06:05:54;4.67;;;4.27;;
2656;SDS011;1338;48.176;11.792;2023-02-27T06:08:24;3.67;;;3.33;;
2656;SDS011;1338;48.176;11.792;2023-02-27T06:10:53;5.30;;;4.80;;
2656;SDS011;1338;48.176;11.792;2023-02-27T06:13:21;5.03;;;4.63;;
2656;SDS011;1338;48.176;11.792;2023-02-27T06:15:52;3.97;;;3.33;;
2656;SDS011;1338;48.176;11.792;2023-02-27T06:18:21;4.97;;;4.47;;
2656;SDS011;1338;48.176;11.792;2023-02-27T06:20:49;4.87;;;4.40;;
2656;SDS011;1338;48.176;11.792;2023-02-27T06:23:17;4.93;;;4.53;;
2656;SDS011;1338;48.176;11.792;2023-02-27T06:25:46;6.27;;;4.60;;
2656;SDS011;1338;48.176;11.792;2023-02-27T06:28:15;7.17;;;4.70;;
2656;SDS011;1338;48.176;11.792;2023-02-27T06:30:43;5.40;;;4.90;;
2656;SDS011;1338;48.176;11.792;2023-02-27T06:33:13;6.63;;;4.30;;
2656;SDS011;1338;48.176;11.792;2023-02-27T06:35:42;5.90;;;5.20;;
2656;SDS011;1338;48.176;11.792;2023-02-27T06:38:10;6.37;;;4.67;;
2656;SDS011;1338;48.176;11.792;2023-02-27T06:40:38;5.10;;;4.60;;
2656;SDS011;1338;48.176;11.792;2023-02-27T06:43:06;6.10;;;5.00;;
2656;SDS011;1338;48.176;11.792;2023-02-27T06:45:35;5.87;;;5.30;;
2656;SDS011;1338;48.176;11.792;2023-02-27T06:48:03;5.40;;;4.20;;
2656;SDS011;1338;48.176;11.792;2023-02-27T06:50:33;5.80;;;5.10;;
2656;SDS011;1338;48.176;11.792;2023-02-27T06:53:01;6.33;;;5.07;;
2656;SDS011;1338;48.176;11.792;2023-02-27T06:55:29;5.60;;;5.10;;
2656;SDS011;1338;48.176;11.792;2023-02-27T06:57:57;6.10;;;5.20;;
2656;SDS011;1338;48.176;11.792;2023-02-27T07:00:25;4.93;;;4.40;;
2656;SDS011;1338;48.176;11.792;2023-02-27T07:02:54;5.10;;;4.60;;
2656;SDS011;1338;48.176;11.792;2023-02-27T07:05:22;4.77;;;4.37;;
2656;SDS011;1338;48.176;11.792;2023-02-27T07:07:52;4.90;;;4.40;;
2656;SDS011;1338;48.176;11.792;2023-02-27T07:10:24;6.53;;;5.00;;
2656;SDS011;1338;48.176;11.792;2023-02-27T07:12:52;5.50;;;4.43;;
2656;SDS011;1338;48.176;11.792;2023-02-27T07:15:20;5.03;;;4.47;;
2656;SDS011;1338;48.176;11.792;2023-02-27T07:17:48;5.10;;;4.60;;
2656;SDS011;1338;48.176;11.792;2023-02-27T07:20:16;6.77;;;5.03;;
2656;SDS011;1338;48.176;11.792;2023-02-27T07:22:44;5.10;;;4.33;;
2656;SDS011;1338;48.176;11.792;2023-02-27T07:25:14;5.23;;;3.90;;
2656;SDS011;1338;48.176;11.792;2023-02-27T07:27:42;5.00;;;4.50;;
2656;SDS011;1338;48.176;11.792;2023-02-27T07:30:11;5.37;;;4.10;;
2656;SDS011;1338;48.176;11.792;2023-02-27T07:32:40;5.03;;;4.47;;
2656;SDS011;1338;48.176;11.792;2023-02-27T07:35:08;5.63;;;4.17;;
2656;SDS011;1338;48.176;11.792;2023-02-27T07:37:37;4.87;;;4.37;;
2656;SDS011;1338;48.176;11.792;2023-02-27T07:40:05;5.53;;;4.57;;
2656;SDS011;1338;48.176;11.792;2023-02-27T07:42:36;5.93;;;4.80;;
2656;SDS011;1338;48.176;11.792;2023-02-27T07:45:05;4.80;;;4.30;;
2656;SDS011;1338;48.176;11.792;2023-02-27T07:47:34;5.37;;;4.87;;
2656;SDS011;1338;48.176;11.792;2023-02-27T07:50:02;6.00;;;4.50;;
2656;SDS011;1338;48.176;11.792;2023-02-27T07:52:30;6.67;;;4.77;;
2656;SDS011;1338;48.176;11.792;2023-02-27T07:54:59;5.53;;;4.93;;
2656;SDS011;1338;48.176;11.792;2023-02-27T07:57:27;5.90;;;5.20;;
2656;SDS011;1338;48.176;11.792;2023-02-27T07:59:56;5.57;;;5.07;;
2656;SDS011;1338;48.176;11.792;2023-02-27T08:02:24;4.20;;;3.80;;
2656;SDS011;1338;48.176;11.792;2023-02-27T08:04:53;5.67;;;4.20;;
2656;SDS011;1338;48.176;11.792;2023-02-27T08:07:21;4.90;;;4.10;;
2656;SDS011;1338;48.176;11.792;2023-02-27T08:09:49;5.70;;;4.20;;
2656;SDS011;1338;48.176;11.792;2023-02-27T08:12:17;5.77;;;4.83;;
2656;SDS011;1338;48.176;11.792;2023-02-27T08:14:45;6.70;;;4.70;;
2656;SDS011;1338;48.176;11.792;2023-02-27T08:17:14;5.50;;;4.80;;
2656;SDS011;1338;48.176;11.792;2023-02-27T08:19:42;5.90;;;5.30;;
2656;SDS011;1338;48.176;11.792;2023-02-27T08:22:10;4.83;;;4.43;;
2656;SDS011;1338;48.176;11.792;2023-02-27T08:24:39;6.07;;;5.57;;
2656;SDS011;1338;48.176;11.792;2023-02-27T08:27:07;6.53;;;5.37;;
2656;SDS011;1338;48.176;11.792;2023-02-27T08:29:35;5.77;;;5.17;;
2656;SDS011;1338;48.176;11.792;2023-02-27T08:32:03;4.83;;;4.43;;
2656;SDS011;1338;48.176;11.792;2023-02-27T08:34:33;5.63;;;5.13;;
2656;SDS011;1338;48.176;11.792;2023-02-27T08:37:01;6.00;;;5.30;;
2656;SDS011;1338;48.176;11.792;2023-02-27T08:39:29;6.90;;;6.20;;
2656;SDS011;1338;48.176;11.792;2023-02-27T08:41:57;6.87;;;5.00;;
2656;SDS011;1338;48.176;11.792;2023-02-27T08:44:25;4.63;;;4.20;;
2656;SDS011;1338;48.176;11.792;2023-02-27T08:46:53;5.90;;;5.30;;
2656;SDS011;1338;48.176;11.792;2023-02-27T08:49:21;5.97;;;5.40;;
2656;SDS011;1338;48.176;11.792;2023-02-27T08:51:52;7.27;;;6.07;;
2656;SDS011;1338;48.176;11.792;2023-02-27T08:54:20;6.33;;;4.93;;
2656;SDS011;1338;48.176;11.792;2023-02-27T08:56:48;6.43;;;5.80;;
2656;SDS011;1338;48.176;11.792;2023-02-27T08:59:16;6.67;;;5.00;;
2656;SDS011;1338;48.176;11.792;2023-02-27T09:01:44;5.40;;;4.93;;
2656;SDS011;1338;48.176;11.792;2023-02-27T09:04:12;7.47;;;5.87;;
2656;SDS011;1338;48.176;11.792;2023-02-27T09:06:40;7.53;;;5.83;;
2656;SDS011;1338;48.176;11.792;2023-02-27T09:09:09;5.90;;;5.40;;
2656;SDS011;1338;48.176;11.792;2023-02-27T09:11:38;5.90;;;4.90;;
2656;SDS011;1338;48.176;11.792;2023-02-27T09:14:06;5.17;;;4.67;;
2656;SDS011;1338;48.176;11.792;2023-02-27T09:16:34;5.70;;;4.90;;
2656;SDS011;1338;48.176;11.792;2023-02-27T09:19:02;5.90;;;5.23;;
2656;SDS011;1338;48.176;11.792;2023-02-27T09:21:31;6.57;;;5.23;;
2656;SDS011;1338;48.176;11.792;2023-02-27T09:23:59;5.60;;;5.10;;
2656;SDS011;1338;48.176;11.792;2023-02-27T09:26:46;6.93;;;6.23;;
2656;SDS011;1338;48.176;11.792;2023-02-27T09:29:15;6.10;;;5.33;;
2656;SDS011;1338;48.176;11.792;2023-02-27T09:31:43;6.83;;;5.07;;
2656;SDS011;1338;48.176;11.792;2023-02-27T09:34:11;7.37;;;6.57;;
2656;SDS011;1338;48.176;11.792;2023-02-27T09:36:39;7.20;;;6.50;;
2656;SDS011;1338;48.176;11.792;2023-02-27T09:39:07;6.90;;;6.20;;
2656;SDS011;1338;48.176;11.792;2023-02-27T09:41:39;7.23;;;6.30;;
2656;SDS011;1338;48.176;11.792;2023-02-27T09:44:20;7.03;;;6.33;;
2656;SDS011;1338;48.176;11.792;2023-02-27T09:47:11;7.00;;;5.60;;
2656;SDS011;1338;48.176;11.792;2023-02-27T09:49:49;6.53;;;6.00;;
2656;SDS011;1338;48.176;11.792;2023-02-27T09:52:30;6.13;;;5.53;;
2656;SDS011;1338;48.176;11.792;2023-02-27T09:55:00;11.37;;;5.67;;
2656;SDS011;1338;48.176;11.792;2023-02-27T09:57:33;6.50;;;5.33;;
2656;SDS011;1338;48.176;11.792;2023-02-27T10:00:11;6.90;;;6.17;;
2656;SDS011;1338;48.176;11.792;2023-02-27T10:02:57;9.17;;;6.97;;
2656;SDS011;1338;48.176;11.792;2023-02-27T10:05:32;8.03;;;6.57;;
2656;SDS011;1338;48.176;11.792;2023-02-27T10:08:08;7.80;;;6.90;;
2656;SDS011;1338;48.176;11.792;2023-02-27T10:10:45;6.70;;;5.67;;
2656;SDS011;1338;48.176;11.792;2023-02-27T10:13:32;7.03;;;5.93;;
2656;SDS011;1338;48.176;11.792;2023-02-27T10:16:09;7.23;;;6.40;;
2656;SDS011;1338;48.176;11.792;2023-02-27T10:18:43;6.57;;;5.63;;
2656;SDS011;1338;48.176;11.792;2023-02-27T10:21:18;5.47;;;4.97;;
2656;SDS011;1338;48.176;11.792;2023-02-27T10:23:50;6.87;;;6.17;;
2656;SDS011;1338;48.176;11.792;2023-02-27T10:26:23;4.77;;;4.27;;
2656;SDS011;1338;48.176;11.792;2023-02-27T10:28:56;6.67;;;5.47;;
2656;SDS011;1338;48.176;11.792;2023-02-27T10:31:29;5.83;;;5.17;;
2656;SDS011;1338;48.176;11.792;2023-02-27T10:33:59;6.00;;;4.30;;
2656;SDS011;1338;48.176;11.792;2023-02-27T10:36:28;5.87;;;4.77;;
2656;SDS011;1338;48.176;11.792;2023-02-27T10:39:00;4.90;;;4.50;;
2656;SDS011;1338;48.176;11.792;2023-02-27T10:41:34;5.80;;;5.30;;
2656;SDS011;1338;48.176;11.792;2023-02-27T10:44:04;5.00;;;4.50;;
2656;SDS011;1338;48.176;11.792;2023-02-27T10:46:33;4.83;;;4.40;;
2656;SDS011;1338;48.176;11.792;2023-02-27T10:49:05;4.13;;;3.83;;
2656;SDS011;1338;48.176;11.792;2023-02-27T10:51:44;4.40;;;4.00;;
2656;SDS011;1338;48.176;11.792;2023-02-27T10:54:14;4.00;;;3.60;;
2656;SDS011;1338;48.176;11.792;2023-02-27T10:56:47;6.23;;;4.00;;
2656;SDS011;1338;48.176;11.792;2023-02-27T10:59:19;6.30;;;4.20;;
2656;SDS011;1338;48.176;11.792;2023-02-27T11:01:50;3.50;;;3.03;;
2656;SDS011;1338;48.176;11.792;2023-02-27T11:04:24;3.67;;;3.37;;
2656;SDS011;1338;48.176;11.792;2023-02-27T11:06:54;4.00;;;3.70;;
2656;SDS011;1338;48.176;11.792;2023-02-27T11:09:24;4.83;;;4.00;;
2656;SDS011;1338;48.176;11.792;2023-02-27T11:11:54;4.10;;;3.57;;
2656;SDS011;1338;48.176;11.792;2023-02-27T11:14:46;4.17;;;3.77;;
2656;SDS011;1338;48.176;11.792;2023-02-27T11:17:20;3.70;;;3.43;;
2656;SDS011;1338;48.176;11.792;2023-02-27T11:19:55;4.53;;;4.13;;
2656;SDS011;1338;48.176;11.792;2023-02-27T11:22:24;5.87;;;3.80;;
2656;SDS011;1338;48.176;11.792;2023-02-27T11:25:08;3.90;;;3.40;;
2656;SDS011;1338;48.176;11.792;2023-02-27T11:27:44;4.60;;;3.50;;
2656;SDS011;1338;48.176;11.792;2023-02-27T11:30:21;3.93;;;3.53;;
2656;SDS011;1338;48.176;11.792;2023-02-27T11:32:54;4.33;;;3.93;;
2656;SDS011;1338;48.176;11.792;2023-02-27T11:35:25;4.97;;;4.47;;
2656;SDS011;1338;48.176;11.792;2023-02-27T11:37:56;4.30;;;3.30;;
2656;SDS011;1338;48.176;11.792;2023-02-27T11:40:27;3.97;;;3.40;;
2656;SDS011;1338;48.176;11.792;2023-02-27T11:43:00;4.47;;;3.57;;
2656;SDS011;1338;48.176;11.792;2023-02-27T11:45:32;3.70;;;3.30;;
2656;SDS011;1338;48.176;11.792;2023-02-27T11:48:23;5.60;;;4.07;;
2656;SDS011;1338;48.176;11.792;2023-02-27T11:51:05;3.53;;;3.23;;
2656;SDS011;1338;48.176;11.792;2023-02-27T11:56:45;3.90;;;3.10;;
2656;SDS011;1338;48.176;11.792;2023-02-27T11:59:21;5.80;;;3.83;;
2656;SDS011;1338;48.176;11.792;2023-02-27T12:01:56;2.50;;;2.30;;
2656;SDS011;1338;48.176;11.792;2023-02-27T12:04:32;3.20;;;2.90;;
2656;SDS011;1338;48.176;11.792;2023-02-27T12:07:11;3.70;;;3.40;;
2656;SDS011;1338;48.176;11.792;2023-02-27T12:09:47;3.93;;;3.53;;
2656;SDS011;1338;48.176;11.792;2023-02-27T12:12:21;4.17;;;3.87;;
2656;SDS011;1338;48.176;11.792;2023-02-27T12:14:54;4.13;;;3.83;;
2656;SDS011;1338;48.176;11.792;2023-02-27T12:17:31;4.60;;;3.67;;
2656;SDS011;1338;48.176;11.792;2023-02-27T12:20:05;3.80;;;3.27;;
2656;SDS011;1338;48.176;11.792;2023-02-27T12:22:45;3.67;;;3.37;;
2656;SDS011;1338;48.176;11.792;2023-02-27T12:25:19;5.70;;;4.03;;
2656;SDS011;1338;48.176;11.792;2023-02-27T12:28:01;4.23;;;3.93;;
2656;SDS011;1338;48.176;11.792;2023-02-27T12:30:38;4.07;;;3.67;;
2656;SDS011;1338;48.176;11.792;2023-02-27T12:33:12;4.10;;;3.80;;
2656;SDS011;1338;48.176;11.792;2023-02-27T12:35:48;4.83;;;4.03;;
2656;SDS011;1338;48.176;11.792;2023-02-27T12:38:22;4.70;;;4.30;;
2656;SDS011;1338;48.176;11.792;2023-02-27T12:40:54;4.23;;;3.67;;
2656;SDS011;1338;48.176;11.792;2023-02-27T12:43:31;3.90;;;3.50;;
2656;SDS011;1338;48.176;11.792;2023-02-27T12:46:16;5.43;;;4.00;;
2656;SDS011;1338;48.176;11.792;2023-02-27T12:49:00;3.83;;;3.53;;
2656;SDS011;1338;48.176;11.792;2023-02-27T12:51:43;4.40;;;3.50;;
2656;SDS011;1338;48.176;11.792;2023-02-27T12:54:20;3.73;;;3.43;;
2656;SDS011;1338;48.176;11.792;2023-02-27T12:57:00;5.37;;;4.57;;
2656;SDS011;1338;48.176;11.792;2023-02-27T12:59:53;3.80;;;3.50;;
2656;SDS011;1338;48.176;11.792;2023-02-27T13:02:44;3.43;;;3.13;;
2656;SDS011;1338;48.176;11.792;2023-02-27T13:05:27;2.90;;;2.63;;
2656;SDS011;1338;48.176;11.792;2023-02-27T13:08:04;5.93;;;4.10;;
2656;SDS011;1338;48.176;11.792;2023-02-27T13:10:41;5.47;;;4.37;;
2656;SDS011;1338;48.176;11.792;2023-02-27T13:13:15;5.13;;;4.20;;
2656;SDS011;1338;48.176;11.792;2023-02-27T13:15:50;5.10;;;3.93;;
2656;SDS011;1338;48.176;11.792;2023-02-27T13:18:27;5.03;;;3.83;;
2656;SDS011;1338;48.176;11.792;2023-02-27T13:21:06;4.50;;;4.10;;
2656;SDS011;1338;48.176;11.792;2023-02-27T13:23:41;4.27;;;3.70;;
2656;SDS011;1338;48.176;11.792;2023-02-27T13:26:20;4.57;;;4.17;;
2656;SDS011;1338;48.176;11.792;2023-02-27T13:28:51;4.40;;;4.00;;
2656;SDS011;1338;48.176;11.792;2023-02-27T13:31:23;4.23;;;3.93;;
2656;SDS011;1338;48.176;11.792;2023-02-27T13:34:00;4.70;;;4.30;;
2656;SDS011;1338;48.176;11.792;2023-02-27T13:36:36;4.80;;;4.37;;
2656;SDS011;1338;48.176;11.792;2023-02-27T13:51:10;5.43;;;4.83;;
2656;SDS011;1338;48.176;11.792;2023-02-27T13:54:20;4.93;;;4.43;;
2656;SDS011;1338;48.176;11.792;2023-02-27T13:57:04;4.67;;;4.17;;
2656;SDS011;1338;48.176;11.792;2023-02-27T13:59:40;6.00;;;4.50;;
2656;SDS011;1338;48.176;11.792;2023-02-27T14:02:23;5.30;;;4.70;;
2656;SDS011;1338;48.176;11.792;2023-02-27T14:05:26;5.63;;;5.10;;
2656;SDS011;1338;48.176;11.792;2023-02-27T14:08:04;5.50;;;4.80;;
2656;SDS011;1338;48.176;11.792;2023-02-27T14:10:36;4.77;;;4.20;;
2656;SDS011;1338;48.176;11.792;2023-02-27T14:16:08;3.80;;;3.50;;
2656;SDS011;1338;48.176;11.792;2023-02-27T14:18:49;6.00;;;4.47;;
2656;SDS011;1338;48.176;11.792;2023-02-27T14:24:21;6.13;;;5.47;;
2656;SDS011;1338;48.176;11.792;2023-02-27T14:26:58;4.07;;;3.77;;
2656;SDS011;1338;48.176;11.792;2023-02-27T14:29:30;4.63;;;3.80;;
2656;SDS011;1338;48.176;11.792;2023-02-27T14:32:00;4.80;;;4.40;;
2656;SDS011;1338;48.176;11.792;2023-02-27T14:34:32;6.23;;;5.63;;
2656;SDS011;1338;48.176;11.792;2023-02-27T14:37:05;5.10;;;4.70;;
2656;SDS011;1338;48.176;11.792;2023-02-27T14:39:38;5.13;;;4.47;;
2656;SDS011;1338;48.176;11.792;2023-02-27T14:42:12;5.47;;;4.90;;
2656;SDS011;1338;48.176;11.792;2023-02-27T14:44:52;5.83;;;5.27;;
2656;SDS011;1338;48.176;11.792;2023-02-27T14:47:23;5.17;;;4.67;;
2656;SDS011;1338;48.176;11.792;2023-02-27T14:49:56;5.70;;;4.60;;
2656;SDS011;1338;48.176;11.792;2023-02-27T14:52:25;5.43;;;4.90;;
2656;SDS011;1338;48.176;11.792;2023-02-27T14:55:06;6.17;;;5.53;;
2656;SDS011;1338;48.176;11.792;2023-02-27T14:57:52;4.83;;;4.27;;
2656;SDS011;1338;48.176;11.792;2023-02-27T15:00:27;4.90;;;4.50;;
2656;SDS011;1338;48.176;11.792;2023-02-27T15:03:06;7.07;;;6.37;;
2656;SDS011;1338;48.176;11.792;2023-02-27T15:05:42;8.00;;;5.80;;
2656;SDS011;1338;48.176;11.792;2023-02-27T15:08:16;5.93;;;5.30;;
2656;SDS011;1338;48.176;11.792;2023-02-27T15:10:48;4.80;;;4.40;;
2656;SDS011;1338;48.176;11.792;2023-02-27T15:13:20;4.80;;;4.40;;
2656;SDS011;1338;48.176;11.792;2023-02-27T15:15:52;5.10;;;4.70;;
2656;SDS011;1338;48.176;11.792;2023-02-27T15:18:55;4.97;;;4.40;;
2656;SDS011;1338;48.176;11.792;2023-02-27T15:21:25;5.23;;;4.80;;
2656;SDS011;1338;48.176;11.792;2023-02-27T15:23:59;4.80;;;4.40;;
2656;SDS011;1338;48.176;11.792;2023-02-27T15:26:28;5.33;;;4.67;;
2656;SDS011;1338;48.176;11.792;2023-02-27T15:29:01;6.63;;;5.20;;
2656;SDS011;1338;48.176;11.792;2023-02-27T15:31:32;6.60;;;5.73;;
2656;SDS011;1338;48.176;11.792;2023-02-27T15:34:01;7.13;;;5.50;;
2656;SDS011;1338;48.176;11.792;2023-02-27T15:36:31;6.63;;;5.63;;
2656;SDS011;1338;48.176;11.792;2023-02-27T15:39:03;4.97;;;4.53;;
2656;SDS011;1338;48.176;11.792;2023-02-27T15:41:33;5.50;;;5.00;;
2656;SDS011;1338;48.176;11.792;2023-02-27T15:44:02;6.00;;;5.43;;
2656;SDS011;1338;48.176;11.792;2023-02-27T15:46:32;5.60;;;5.10;;
2656;SDS011;1338;48.176;11.792;2023-02-27T15:49:01;6.17;;;5.00;;
2656;SDS011;1338;48.176;11.792;2023-02-27T15:51:29;6.23;;;5.53;;
2656;SDS011;1338;48.176;11.792;2023-02-27T15:53:57;6.37;;;5.77;;
2656;SDS011;1338;48.176;11.792;2023-02-27T15:56:27;6.40;;;5.80;;
2656;SDS011;1338;48.176;11.792;2023-02-27T15:58:59;6.57;;;5.70;;
2656;SDS011;1338;48.176;11.792;2023-02-27T16:01:28;5.37;;;4.87;;
2656;SDS011;1338;48.176;11.792;2023-02-27T16:04:01;3.40;;;3.10;;
2656;SDS011;1338;48.176;11.792;2023-02-27T16:06:32;4.90;;;4.50;;